Time;durP1;ratioP1;P1;durP2;ratioP2;P2;SDS_P1;SDS_P2;PMS_P1;PMS_P2;Temp;Humidity;BMP_temperature;BMP_pressure;BME280_temperature;BME280_humidity;BME280_pressure;Samples;Min_cycle;Max_cycle;Signal;HPM_P1;HPM_P2
2023/01/30 00:00:33;;;;;;;;;61.75;51.50;;;;;2.86;62.47;100298.06;5054321;28;45414;-73
2023/01/30 00:02:58;;;;;;;;;67.00;51.75;;;;;2.85;62.49;100284.19;5053825;28;45565;-75
2023/01/30 00:05:24;;;;;;;;;67.67;52.33;;;;;2.87;62.35;100282.47;5053552;28;45424;-74
2023/01/30 00:07:49;;;;;;;;;66.00;48.50;;;;;2.88;62.19;100284.22;5071794;28;45369;-75
2023/01/30 00:10:15;;;;;;;;;65.25;51.00;;;;;2.90;62.02;100277.28;5073185;28;45694;-74
2023/01/30 00:12:41;;;;;;;;;64.25;50.25;;;;;2.90;62.33;100277.28;5073434;28;45407;-75
2023/01/30 00:15:07;;;;;;;;;55.33;45.33;;;;;2.91;62.01;100273.84;5077880;28;45836;-74
2023/01/30 00:17:32;;;;;;;;;70.00;52.25;;;;;2.91;61.80;100278.16;5062204;27;45334;-74
2023/01/30 00:19:58;;;;;;;;;59.00;46.00;;;;;2.91;62.02;100266.03;5057592;28;45322;-74
2023/01/30 00:22:23;;;;;;;;;63.25;49.75;;;;;2.92;61.84;100261.69;5057394;28;45574;-74
2023/01/30 00:24:48;;;;;;;;;58.00;48.75;;;;;2.93;61.85;100253.00;5057260;28;45366;-74
2023/01/30 00:27:14;;;;;;;;;64.67;49.67;;;;;2.96;62.14;100248.72;5070977;28;45365;-74
2023/01/30 00:29:39;;;;;;;;;62.75;49.75;;;;;2.97;62.02;100247.84;5055700;28;45793;-74
2023/01/30 00:32:05;;;;;;;;;69.00;52.25;;;;;3.00;61.84;100244.41;5057078;28;45372;-74
2023/01/30 00:34:31;;;;;;;;;74.50;54.00;;;;;3.01;61.98;100235.72;5057038;28;46402;-74
2023/01/30 00:36:57;;;;;;;;;67.00;52.25;;;;;2.99;61.92;100235.72;5057178;28;45353;-74
2023/01/30 00:39:22;;;;;;;;;60.67;47.33;;;;;2.99;61.97;100232.25;5056129;28;45514;-74
2023/01/30 00:47:15;;;;;;;;;65.50;47.00;;;;;3.04;62.41;100227.91;5056451;28;45353;-74
2023/01/30 00:49:41;;;;;;;;;72.25;53.75;;;;;3.04;62.69;100230.53;5054979;28;45351;-74
2023/01/30 00:52:06;;;;;;;;;74.50;55.75;;;;;3.00;62.89;100227.03;5055220;28;45487;-74
2023/01/30 00:54:32;;;;;;;;;69.75;54.50;;;;;2.98;63.11;100228.75;5069322;28;45974;-74
2023/01/30 00:56:57;;;;;;;;;73.25;57.00;;;;;2.97;63.50;100228.75;5069529;28;45507;-74
2023/01/30 00:59:22;;;;;;;;;68.25;54.50;;;;;2.93;63.48;100226.97;5069435;28;45701;-74
2023/01/30 01:01:48;;;;;;;;;80.00;58.50;;;;;2.92;63.54;100231.31;5057686;27;45510;-74
2023/01/30 01:04:13;;;;;;;;;68.75;56.00;;;;;2.91;63.57;100228.69;5056248;28;46003;-75
2023/01/30 01:06:39;;;;;;;;;72.25;55.75;;;;;2.90;63.89;100222.59;5074158;28;45379;-74
2023/01/30 01:09:05;;;;;;;;;71.50;55.50;;;;;2.90;64.12;100230.41;5064832;27;45458;-74
2023/01/30 01:11:31;;;;;;;;;70.50;56.00;;;;;2.88;63.82;100229.53;5056477;28;45493;-74
2023/01/30 01:13:59;;;;;;;;;71.50;55.25;;;;;2.88;64.03;100226.91;5056692;28;46626;-74
2023/01/30 01:16:26;;;;;;;;;74.75;59.00;;;;;2.89;63.99;100228.66;5056604;28;45338;-74
2023/01/30 01:18:52;;;;;;;;;79.50;59.75;;;;;2.88;63.77;100231.25;5056429;28;45345;-74
2023/01/30 01:21:18;;;;;;;;;73.00;57.00;;;;;2.87;63.86;100235.59;5069890;28;45438;-74
2023/01/30 01:23:43;;;;;;;;;75.75;55.50;;;;;2.88;64.09;100239.06;5068953;28;46492;-74
2023/01/30 01:26:09;;;;;;;;;71.25;53.75;;;;;2.87;64.14;100232.13;5054561;28;45598;-74
2023/01/30 01:28:34;;;;;;;;;74.75;55.00;;;;;2.84;63.85;100235.59;5056233;28;45468;-74
2023/01/30 01:31:06;;;;;;;;;79.50;59.50;;;;;2.85;64.07;100236.47;5056292;28;45526;-74
2023/01/30 01:33:32;;;;;;;;;71.75;55.00;;;;;2.84;64.08;100235.59;5054712;28;46775;-74
2023/01/30 01:35:57;;;;;;;;;68.00;53.50;;;;;2.85;64.42;100239.06;5062784;28;45506;-74
2023/01/30 01:38:22;;;;;;;;;77.00;58.00;;;;;2.85;63.89;100236.47;5076589;28;45734;-74
2023/01/30 01:41:05;;;;;;;;;69.75;55.25;;;;;2.85;64.07;100228.66;5092111;27;45566;-74
2023/01/30 01:43:37;;;;;;;;;70.75;56.00;;;;;2.83;63.70;100230.38;5076396;28;45490;-74
2023/01/30 01:46:17;;;;;;;;;79.00;59.00;;;;;2.82;63.94;100239.03;5074932;28;45471;-74
2023/01/30 01:48:53;;;;;;;;;73.25;56.75;;;;;2.81;63.72;100245.97;5057302;27;45720;-74
2023/01/30 01:51:26;;;;;;;;;74.00;58.50;;;;;2.80;63.97;100246.84;5055991;28;45356;-73
2023/01/30 01:54:01;;;;;;;;;74.75;57.00;;;;;2.80;64.13;100244.22;5055499;28;45395;-74
2023/01/30 01:56:28;;;;;;;;;76.50;56.50;;;;;2.78;64.16;100241.59;5069702;28;45578;-74
2023/01/30 01:59:00;;;;;;;;;73.25;57.00;;;;;2.78;63.83;100251.16;5076424;28;45565;-74
2023/01/30 02:01:27;;;;;;;;;71.00;57.00;;;;;2.77;63.57;100254.63;5075544;28;45382;-74
2023/01/30 02:03:57;;;;;;;;;69.00;53.25;;;;;2.78;63.64;100252.03;5066429;28;46453;-74
2023/01/30 02:06:23;;;;;;;;;67.25;54.00;;;;;2.78;63.57;100257.22;5065204;28;45461;-74
2023/01/30 02:08:57;;;;;;;;;72.25;54.25;;;;;2.79;63.49;100252.91;5055941;28;45384;-74
2023/01/30 02:11:30;;;;;;;;;72.75;55.25;;;;;2.80;63.40;100259.84;5059641;28;45439;-74
2023/01/30 02:13:58;;;;;;;;;63.75;49.00;;;;;2.78;63.71;100262.44;5063447;27;46812;-74
2023/01/30 02:16:23;;;;;;;;;69.75;53.50;;;;;2.78;63.31;100259.84;5054011;28;45615;-74
2023/01/30 02:18:49;;;;;;;;;71.00;57.50;;;;;2.79;63.44;100260.72;5055492;28;45302;-74
2023/01/30 02:21:23;;;;;;;;;68.00;47.75;;;;;2.78;63.08;100257.22;5055485;28;45443;-74
2023/01/30 02:23:54;;;;;;;;;70.25;53.25;;;;;2.79;63.31;100248.56;5068342;28;46619;-74
2023/01/30 02:26:32;;;;;;;;;75.25;55.50;;;;;2.79;63.30;100248.56;5067274;28;45515;-74
2023/01/30 02:28:57;;;;;;;;;69.50;55.25;;;;;2.78;63.00;100252.03;5055619;28;45440;-74
2023/01/30 02:31:52;;;;;;;;;73.25;55.75;;;;;2.79;63.05;100240.75;5055566;28;45420;-74
2023/01/30 02:34:34;;;;;;;;;66.75;53.50;;;;;2.80;63.21;100232.09;5054407;28;46805;-74
2023/01/30 02:37:21;;;;;;;;;71.50;55.50;;;;;2.80;63.08;100229.47;5054831;28;45432;-74
2023/01/30 02:39:55;;;;;;;;;65.75;52.25;;;;;2.82;62.88;100224.28;5055344;28;45483;-74
2023/01/30 02:42:33;;;;;;;;;57.25;46.25;;;;;2.82;63.04;100219.09;5055107;28;45447;-74
2023/01/30 02:45:30;;;;;;;;;69.50;54.25;;;;;2.83;63.05;100206.94;5055044;28;45443;-74
2023/01/30 02:48:01;;;;;;;;;67.50;53.50;;;;;2.84;62.85;100209.56;5052602;28;45384;-74
2023/01/30 02:50:52;;;;;;;;;64.50;51.00;;;;;2.87;63.00;100211.28;5053173;28;45446;-74
2023/01/30 02:53:18;;;;;;;;;67.75;55.50;;;;;2.86;62.82;100206.94;5054914;28;45400;-74
2023/01/30 02:55:43;;;;;;;;;70.00;54.50;;;;;2.87;63.05;100200.88;5062483;28;46266;-74
2023/01/30 02:58:09;;;;;;;;;77.75;57.00;;;;;2.87;62.98;100199.13;5075445;27;45513;-74
2023/01/30 03:00:47;;;;;;;;;64.50;51.00;;;;;2.87;62.72;100190.44;5074064;28;45421;-74
2023/01/30 03:03:31;;;;;;;;;68.25;52.50;;;;;2.88;62.64;100185.25;5074789;28;45602;-74
2023/01/30 03:06:25;;;;;;;;;63.00;50.00;;;;;2.90;62.62;100188.75;5072931;28;45422;-74
2023/01/30 03:09:09;;;;;;;;;58.00;48.00;;;;;2.91;62.66;100194.84;5055208;28;45359;-74
2023/01/30 03:12:06;;;;;;;;;65.75;52.75;;;;;2.85;63.21;100202.63;5074986;28;45380;-74
2023/01/30 03:14:43;;;;;;;;;75.00;57.00;;;;;2.75;63.60;100202.53;5053801;28;45684;-75
2023/01/30 03:17:11;;;;;;;;;72.25;52.75;;;;;2.68;64.05;100205.06;5054184;28;46257;-74
2023/01/30 03:19:37;;;;;;;;;66.25;52.50;;;;;2.61;64.17;100213.66;5053561;28;45514;-74
2023/01/30 03:22:02;;;;;;;;;63.25;47.75;;;;;2.55;64.35;100218.81;5053183;28;45390;-74
2023/01/30 03:24:28;;;;;;;;;65.25;52.25;;;;;2.50;64.44;100230.94;5070101;28;45556;-74
2023/01/30 03:27:12;;;;;;;;;73.00;52.75;;;;;2.47;64.63;100244.78;5054389;28;45562;-74
2023/01/30 03:29:38;;;;;;;;;66.75;51.25;;;;;2.40;64.90;100249.03;5062526;28;45335;-74
2023/01/30 03:32:03;;;;;;;;;68.00;55.00;;;;;2.36;65.00;100259.38;5090297;27;45459;-74
2023/01/30 03:34:29;;;;;;;;;61.00;50.50;;;;;2.35;65.12;100252.44;5090231;27;45365;-74
2023/01/30 03:36:55;;;;;;;;;66.50;53.50;;;;;2.37;65.10;100256.78;5074586;28;45442;-74
2023/01/30 03:39:23;;;;;;;;;72.25;54.25;;;;;2.42;65.16;100259.47;5074733;28;45433;-74
2023/01/30 03:41:49;;;;;;;;;68.00;54.75;;;;;2.48;64.89;100261.25;5088869;27;45474;-74
2023/01/30 03:44:14;;;;;;;;;70.50;53.50;;;;;2.50;64.97;100263.03;5062326;28;45380;-74
2023/01/30 03:46:40;;;;;;;;;72.00;52.00;;;;;2.52;64.88;100273.44;5073899;28;46221;-74
2023/01/30 03:49:05;;;;;;;;;70.25;53.00;;;;;2.54;64.70;100270.00;5077494;27;45418;-74
2023/01/30 03:51:31;;;;;;;;;65.50;54.75;;;;;2.59;64.80;100272.66;5077333;28;45387;-74
2023/01/30 03:53:56;;;;;;;;;73.50;57.25;;;;;2.64;64.42;100278.78;5057950;28;45480;-74
2023/01/30 03:56:21;;;;;;;;;72.00;56.25;;;;;2.66;64.37;100279.69;5072047;28;46037;-74
2023/01/30 03:58:47;;;;;;;;;73.75;55.75;;;;;2.68;64.50;100289.22;5093762;27;45410;-74
2023/01/30 04:01:12;;;;;;;;;68.75;52.00;;;;;2.70;64.31;100294.44;5077971;28;45490;-74
2023/01/30 04:03:37;;;;;;;;;76.25;53.75;;;;;2.69;64.29;100300.50;5070270;28;45468;-74
2023/01/30 04:06:03;;;;;;;;;66.00;53.25;;;;;2.69;64.22;100310.94;5057938;28;46157;-74
2023/01/30 04:08:28;;;;;;;;;68.50;51.75;;;;;2.64;64.74;100325.66;5078198;28;45416;-74
2023/01/30 04:10:54;;;;;;;;;72.50;53.25;;;;;2.55;64.94;100325.53;5063906;27;45546;-74
2023/01/30 04:13:19;;;;;;;;;70.50;53.00;;;;;2.52;65.32;100325.47;5057739;28;45463;-74
2023/01/30 04:15:44;;;;;;;;;65.25;52.50;;;;;2.50;64.89;100333.31;5057360;28;46287;-74
2023/01/30 04:18:10;;;;;;;;;64.25;52.25;;;;;2.50;65.06;100338.50;5057171;28;45417;-74
2023/01/30 04:20:35;;;;;;;;;65.00;48.00;;;;;2.54;65.27;100347.19;5057981;28;45447;-74
2023/01/30 04:23:01;;;;;;;;;68.75;52.00;;;;;2.53;65.57;100353.25;5077548;27;45559;-74
2023/01/30 04:25:27;;;;;;;;;73.75;57.75;;;;;2.51;65.44;100370.63;5061922;28;47571;-74
2023/01/30 04:27:53;;;;;;;;;70.25;57.00;;;;;2.51;65.53;100378.41;5057053;28;45384;-74
2023/01/30 04:30:18;;;;;;;;;66.25;53.75;;;;;2.53;65.19;100377.56;5070624;28;45508;-74
2023/01/30 04:32:44;;;;;;;;;72.50;56.25;;;;;2.54;65.52;100378.44;5070716;27;45512;-74
2023/01/30 04:35:09;;;;;;;;;74.25;57.25;;;;;2.55;65.29;100370.66;5056543;28;46071;-74
2023/01/30 04:37:35;;;;;;;;;69.50;55.75;;;;;2.57;65.44;100363.72;5057242;28;45673;-74
2023/01/30 04:40:00;;;;;;;;;69.50;55.00;;;;;2.59;65.39;100362.03;5069476;28;45469;-74
2023/01/30 04:42:25;;;;;;;;;68.25;54.25;;;;;2.60;65.59;100349.88;5070915;27;45405;-74
2023/01/30 04:44:51;;;;;;;;;73.00;56.25;;;;;2.61;65.55;100359.44;5056854;28;45581;-74
2023/01/30 04:47:16;;;;;;;;;71.25;56.75;;;;;2.61;65.38;100355.13;5056818;28;45380;-74
2023/01/30 04:49:42;;;;;;;;;76.00;57.00;;;;;2.58;65.60;100360.28;5056733;28;45392;-75
2023/01/30 04:52:07;;;;;;;;;69.00;54.50;;;;;2.59;65.72;100353.34;5057004;28;45513;-75
2023/01/30 04:54:33;;;;;;;;;73.75;57.50;;;;;2.56;65.42;100342.88;5057106;28;45655;-74
2023/01/30 04:56:58;;;;;;;;;78.75;59.00;;;;;2.55;65.96;100334.22;5076179;28;45487;-74
2023/01/30 04:59:24;;;;;;;;;68.25;57.00;;;;;2.56;65.61;100342.88;5075890;28;45502;-74
2023/01/30 05:01:49;;;;;;;;;82.00;59.00;;;;;2.57;65.73;100347.25;5056033;28;45500;-74
2023/01/30 05:04:14;;;;;;;;;66.25;50.75;;;;;2.55;65.52;100333.34;5071878;28;47733;-74
2023/01/30 05:06:40;;;;;;;;;80.00;60.25;;;;;2.53;65.58;100315.09;5063954;28;45494;-74
2023/01/30 05:09:06;;;;;;;;;74.25;58.50;;;;;2.53;65.59;100329.84;5076641;28;45409;-74
2023/01/30 05:11:31;;;;;;;;;71.25;58.50;;;;;2.55;65.58;100338.53;5074854;28;45523;-74
2023/01/30 05:13:57;;;;;;;;;70.50;56.75;;;;;2.57;65.27;100310.81;5076726;28;45648;-74
2023/01/30 05:16:22;;;;;;;;;65.50;55.50;;;;;2.58;65.34;100305.63;5076837;28;45412;-74
2023/01/30 05:18:49;;;;;;;;;63.00;46.25;;;;;2.59;65.11;100330.78;5076254;28;45613;-74
2023/01/30 05:21:18;;;;;;;;;74.50;57.75;;;;;2.61;64.99;100331.69;5071040;28;45586;-74
2023/01/30 05:23:44;;;;;;;;;65.50;53.25;;;;;2.61;65.13;100308.25;5056048;28;46267;-74
2023/01/30 05:26:10;;;;;;;;;72.25;56.50;;;;;2.62;65.22;100310.00;5060522;28;45376;-74
2023/01/30 05:28:36;;;;;;;;;77.00;56.75;;;;;2.63;65.24;100311.75;5076475;27;45540;-74
2023/01/30 05:31:12;;;;;;;;;69.00;53.50;;;;;2.66;65.03;100297.91;5056977;27;45455;-74
2023/01/30 05:33:39;;;;;;;;;69.25;54.25;;;;;2.67;65.11;100297.03;5055998;28;45428;-74
2023/01/30 05:36:05;;;;;;;;;71.00;56.50;;;;;2.65;65.19;100291.81;5055623;28;45420;-74
2023/01/30 05:38:31;;;;;;;;;70.50;54.75;;;;;2.66;65.38;100285.75;5055825;28;45307;-74
2023/01/30 05:41:04;;;;;;;;;68.75;53.00;;;;;2.66;65.22;100290.09;5055799;28;45433;-74
2023/01/30 05:43:31;;;;;;;;;72.50;56.25;;;;;2.65;65.19;100288.34;5086581;27;47077;-74
2023/01/30 05:45:58;;;;;;;;;67.25;54.25;;;;;2.65;65.40;100281.41;5075786;28;45377;-74
2023/01/30 05:48:23;;;;;;;;;64.75;51.50;;;;;2.62;65.18;100268.34;5075199;28;45527;-75
2023/01/30 05:50:53;;;;;;;;;66.00;54.00;;;;;2.61;65.40;100260.53;5075741;28;45861;-74
2023/01/30 05:53:20;;;;;;;;;65.25;52.75;;;;;2.61;64.99;100264.00;5075210;27;46814;-74
2023/01/30 05:55:53;;;;;;;;;70.00;48.00;;;;;2.58;65.25;100266.56;5064580;28;45419;-74
2023/01/30 05:58:18;;;;;;;;;68.25;51.75;;;;;2.58;65.18;100253.56;5058810;27;45379;-74
2023/01/30 06:00:43;;;;;;;;;65.25;50.50;;;;;2.60;65.60;100261.38;5065391;28;45429;-74
2023/01/30 06:03:09;;;;;;;;;69.25;50.50;;;;;2.61;65.04;100261.41;5059813;28;48247;-74
2023/01/30 06:05:36;;;;;;;;;67.50;50.75;;;;;2.60;65.13;100254.44;5065258;27;45428;-74
2023/01/30 06:08:02;;;;;;;;;73.75;53.25;;;;;2.59;65.31;100250.09;5074877;28;45387;-74
2023/01/30 06:10:27;;;;;;;;;71.00;53.75;;;;;2.60;65.13;100253.56;5072676;28;45404;-74
2023/01/30 06:12:53;;;;;;;;;69.25;55.00;;;;;2.60;65.16;100243.16;5075025;28;46630;-74
2023/01/30 06:15:18;;;;;;;;;64.00;50.00;;;;;2.58;65.01;100247.47;5065637;27;45511;-74
2023/01/30 06:17:43;;;;;;;;;69.25;55.25;;;;;2.59;65.08;100259.63;5056641;28;45853;-74
2023/01/30 06:20:10;;;;;;;;;61.75;49.25;;;;;2.59;65.19;100260.50;5074985;27;45412;-74
2023/01/30 06:22:36;;;;;;;;;65.50;52.50;;;;;2.60;65.03;100256.19;5071899;27;45558;-74
2023/01/30 06:25:02;;;;;;;;;65.00;52.00;;;;;2.59;65.13;100252.69;5054451;28;45453;-74
2023/01/30 06:27:27;;;;;;;;;63.50;51.25;;;;;2.59;64.90;100237.09;5054705;28;45467;-74
2023/01/30 06:29:53;;;;;;;;;66.25;50.25;;;;;2.59;65.21;100236.22;5064171;28;45503;-74
2023/01/30 06:32:18;;;;;;;;;65.75;50.75;;;;;2.59;65.03;100231.00;5058197;27;45380;-74
2023/01/30 06:34:43;;;;;;;;;68.25;51.75;;;;;2.62;65.27;100236.25;5053251;28;45378;-74
2023/01/30 06:37:09;;;;;;;;;61.00;48.00;;;;;2.61;65.24;100226.69;5054435;28;45695;-74
2023/01/30 06:39:34;;;;;;;;;65.75;51.25;;;;;2.60;64.89;100231.03;5063776;28;45380;-75
2023/01/30 06:42:00;;;;;;;;;63.00;51.00;;;;;2.61;64.92;100216.28;5056331;28;45859;-74
2023/01/30 06:44:25;;;;;;;;;73.00;53.75;;;;;2.61;65.09;100213.66;5053862;28;45368;-74
2023/01/30 06:46:52;;;;;;;;;68.75;49.50;;;;;2.62;65.30;100224.09;5053783;28;45438;-74
2023/01/30 06:49:17;;;;;;;;;71.50;52.50;;;;;2.60;65.47;100220.59;5053095;28;45352;-75
2023/01/30 06:51:42;;;;;;;;;66.00;53.00;;;;;2.63;65.09;100225.84;5052818;28;45973;-75
2023/01/30 06:54:08;;;;;;;;;60.75;48.75;;;;;2.64;65.40;100244.94;5052398;28;45418;-74
2023/01/30 06:56:33;;;;;;;;;66.50;48.00;;;;;2.63;65.45;100235.38;5068452;28;45425;-74
2023/01/30 06:58:58;;;;;;;;;66.25;50.25;;;;;2.63;65.42;100248.41;5073895;28;45612;-74
2023/01/30 07:01:24;;;;;;;;;61.00;50.00;;;;;2.64;65.37;100239.75;5073139;27;45720;-76
2023/01/30 07:03:49;;;;;;;;;66.50;52.50;;;;;2.67;65.12;100250.19;5073365;28;45546;-74
2023/01/30 07:06:15;;;;;;;;;64.75;50.00;;;;;2.66;64.52;100257.13;5073814;28;45495;-74
2023/01/30 07:08:40;;;;;;;;;69.25;54.00;;;;;2.68;64.69;100260.59;5073999;28;45445;-74
2023/01/30 07:11:05;;;;;;;;;51.75;43.00;;;;;2.70;64.61;100265.81;5073647;28;45391;-74
2023/01/30 07:13:31;;;;;;;;;57.67;43.67;;;;;2.71;64.19;100273.63;5073887;28;45485;-74
2023/01/30 07:15:56;;;;;;;;;59.00;47.67;;;;;2.75;64.07;100271.94;5073677;28;45349;-74
2023/01/30 07:18:22;;;;;;;;;61.25;49.00;;;;;2.78;64.39;100267.66;5088542;27;45472;-74
2023/01/30 07:20:48;;;;;;;;;58.00;45.75;;;;;2.82;64.08;100268.56;5071347;28;47257;-76
2023/01/30 07:23:14;;;;;;;;;57.00;46.33;;;;;2.85;63.84;100271.16;5063894;28;45435;-75
2023/01/30 07:25:39;;;;;;;;;66.00;50.75;;;;;2.85;63.98;100281.56;5051305;28;45418;-75
2023/01/30 07:28:04;;;;;;;;;59.67;46.67;;;;;2.89;63.85;100285.09;5060627;28;45432;-75
2023/01/30 07:30:34;;;;;;;;;62.67;46.67;;;;;2.91;63.80;100283.38;5072380;27;45347;-75
2023/01/30 07:33:04;;;;;;;;;60.33;48.67;;;;;2.94;63.33;100273.88;5052923;28;45482;-75
2023/01/30 07:35:31;;;;;;;;;65.33;46.33;;;;;2.97;63.30;100273.03;5053552;28;45334;-75
2023/01/30 07:37:57;;;;;;;;;61.33;47.00;;;;;3.00;63.57;100280.88;5061754;28;45654;-75
2023/01/30 07:40:24;;;;;;;;;56.67;46.00;;;;;3.03;63.00;100289.56;5071859;28;46574;-75
2023/01/30 07:42:59;;;;;;;;;54.00;42.00;;;;;3.04;63.47;100286.09;5088572;27;45500;-74
2023/01/30 07:45:28;;;;;;;;;66.67;48.33;;;;;3.05;63.66;100303.47;5068719;28;45490;-75
2023/01/30 07:47:54;;;;;;;;;67.25;53.00;;;;;3.06;63.54;100291.31;5050884;28;45438;-74
2023/01/30 07:50:19;;;;;;;;;69.25;54.50;;;;;3.03;64.34;100294.78;5052451;28;45365;-75
2023/01/30 07:52:45;;;;;;;;;67.75;50.75;;;;;3.05;64.59;100285.25;5052655;28;45492;-75
2023/01/30 07:55:10;;;;;;;;;66.50;54.75;;;;;3.07;64.58;100282.66;5056531;28;45455;-75
2023/01/30 07:57:36;;;;;;;;;70.75;56.75;;;;;3.09;64.64;100297.44;5073147;27;45576;-75
2023/01/30 08:00:02;;;;;;;;;63.50;51.00;;;;;3.07;64.50;100306.97;5068251;27;45439;-75
2023/01/30 08:02:27;;;;;;;;;78.50;57.50;;;;;3.06;64.88;100306.97;5052920;28;45362;-75
2023/01/30 08:04:52;;;;;;;;;57.75;43.25;;;;;3.04;64.86;100319.09;5052316;28;45334;-75
2023/01/30 08:07:18;;;;;;;;;73.75;52.00;;;;;3.04;64.84;100308.66;5064124;28;46348;-74
2023/01/30 08:09:43;;;;;;;;;71.00;52.25;;;;;3.02;64.72;100292.16;5073075;28;45765;-75
2023/01/30 08:12:08;;;;;;;;;66.33;50.33;;;;;2.98;64.67;100308.63;5073250;28;45571;-75
2023/01/30 08:14:34;;;;;;;;;67.50;52.50;;;;;2.97;64.52;100305.16;5072514;28;45446;-75
2023/01/30 08:16:59;;;;;;;;;60.67;49.00;;;;;2.97;64.36;100302.56;5073316;28;45432;-75
2023/01/30 08:19:25;;;;;;;;;66.33;47.67;;;;;2.98;64.34;100301.69;5072148;28;46566;-75
2023/01/30 08:21:50;;;;;;;;;68.00;49.00;;;;;3.00;64.30;100294.78;5088367;27;45403;-75
2023/01/30 08:24:15;;;;;;;;;67.50;53.00;;;;;3.03;64.31;100289.56;5056552;28;45965;-74
2023/01/30 08:26:41;;;;;;;;;65.25;48.00;;;;;3.07;64.26;100296.56;5051418;28;45366;-75
2023/01/30 08:29:06;;;;;;;;;71.75;51.00;;;;;3.09;64.38;100289.63;5051683;28;46981;-76
2023/01/30 08:31:32;;;;;;;;;64.00;48.67;;;;;3.11;63.98;100279.22;5052828;28;45418;-73
2023/01/30 08:33:57;;;;;;;;;61.00;44.67;;;;;3.13;63.82;100287.94;5052264;28;45617;-73
2023/01/30 08:36:23;;;;;;;;;66.00;49.00;;;;;3.13;63.76;100288.81;5066318;28;45418;-74
2023/01/30 08:38:48;;;;;;;;;65.67;51.33;;;;;3.17;63.85;100283.63;5075535;27;46695;-75
2023/01/30 08:41:13;;;;;;;;;62.00;47.67;;;;;3.21;63.75;100277.56;5056546;28;45437;-75
2023/01/30 08:43:39;;;;;;;;;56.33;48.00;;;;;3.26;63.35;100284.56;5058800;28;45385;-74
2023/01/30 08:46:04;;;;;;;;;68.00;52.25;;;;;3.31;63.32;100302.84;5066976;27;45376;-75
2023/01/30 08:48:30;;;;;;;;;68.75;51.25;;;;;3.34;63.49;100310.69;5058074;28;45398;-74
2023/01/30 08:50:56;;;;;;;;;61.33;47.67;;;;;3.38;63.09;100330.69;5066536;27;45318;-74
2023/01/30 08:53:22;;;;;;;;;65.00;49.67;;;;;3.40;63.02;100358.50;5056137;28;45574;-75
2023/01/30 08:55:52;;;;;;;;;69.00;51.33;;;;;3.44;63.21;100339.44;5065543;28;45289;-74
2023/01/30 08:58:21;;;;;;;;;55.00;45.00;;;;;3.45;62.94;100369.00;5075786;27;45426;-75
2023/01/30 09:00:49;;;;;;;;;68.00;51.75;;;;;3.43;63.02;100368.97;5076000;28;45475;-75
2023/01/30 09:03:15;;;;;;;;;51.67;41.67;;;;;3.47;63.26;100367.28;5057836;27;45428;-75
2023/01/30 09:05:41;;;;;;;;;62.33;45.67;;;;;3.50;62.99;100364.69;5054052;28;45477;-75
2023/01/30 09:08:06;;;;;;;;;70.75;52.75;;;;;3.53;63.03;100382.94;5054401;28;46045;-75
2023/01/30 09:10:31;;;;;;;;;65.50;52.00;;;;;3.55;63.06;100396.88;5065370;28;45314;-75
2023/01/30 09:12:57;;;;;;;;;62.75;47.75;;;;;3.57;62.96;100395.16;5058807;27;45510;-75
2023/01/30 09:15:22;;;;;;;;;67.33;52.00;;;;;3.61;62.96;100396.06;5056094;28;45455;-75
2023/01/30 09:17:48;;;;;;;;;65.25;51.75;;;;;3.64;63.07;100383.94;5053697;28;46510;-75
2023/01/30 09:20:13;;;;;;;;;67.00;53.00;;;;;3.68;62.78;100377.00;5055553;28;45574;-75
2023/01/30 09:22:39;;;;;;;;;63.67;49.00;;;;;3.67;62.89;100393.50;5055996;28;45337;-74
2023/01/30 09:25:05;;;;;;;;;65.00;52.33;;;;;3.69;62.91;100376.13;5053368;28;45394;-75
2023/01/30 09:27:31;;;;;;;;;60.00;46.67;;;;;3.67;62.81;100373.53;5071013;28;45591;-74
2023/01/30 09:29:57;;;;;;;;;62.67;50.67;;;;;3.70;62.59;100385.69;5073880;28;45366;-75
2023/01/30 09:32:22;;;;;;;;;63.75;48.75;;;;;3.72;62.75;100360.50;5075002;28;45416;-75
2023/01/30 09:34:48;;;;;;;;;66.50;51.75;;;;;3.76;62.55;100370.97;5090521;27;45422;-75
2023/01/30 09:37:14;;;;;;;;;67.00;50.67;;;;;3.79;62.47;100376.22;5075483;28;45652;-75
2023/01/30 09:39:39;;;;;;;;;67.50;53.00;;;;;3.84;62.31;100360.59;5091390;27;45403;-75
2023/01/30 09:42:19;;;;;;;;;60.50;41.50;;;;;3.86;62.15;100372.78;5075301;28;45361;-75
2023/01/30 09:44:59;;;;;;;;;62.50;48.25;;;;;3.90;61.90;100344.97;5075102;28;45624;-75
2023/01/30 09:47:51;;;;;;;;;66.75;51.00;;;;;3.95;61.90;100332.84;5090860;27;45523;-75
2023/01/30 09:50:34;;;;;;;;;61.25;49.25;;;;;3.96;61.18;100350.25;5075414;27;45290;-75
2023/01/30 09:53:27;;;;;;;;;56.00;47.33;;;;;3.93;60.97;100349.34;5075723;28;45411;-75
2023/01/30 09:55:52;;;;;;;;;59.00;45.33;;;;;3.84;59.47;100360.59;5065436;28;45368;-75
2023/01/30 09:58:24;;;;;;;;;43.33;37.67;;;;;3.66;60.09;100365.69;5072982;28;47597;-75
2023/01/30 10:00:55;;;;;;;;;52.67;44.00;;;;;3.48;60.88;100364.69;5073656;28;45545;-74
2023/01/30 10:03:32;;;;;;;;;58.33;43.33;;;;;3.32;61.07;100369.75;5069528;28;45515;-74
2023/01/30 10:06:04;;;;;;;;;53.33;44.33;;;;;3.18;61.49;100364.41;5054821;28;45437;-74
2023/01/30 10:08:50;;;;;;;;;48.67;39.33;;;;;3.10;62.00;100376.47;5062415;28;46312;-74
2023/01/30 10:11:40;;;;;;;;;54.67;42.67;;;;;3.03;62.19;100395.50;5073581;28;45375;-75
2023/01/30 10:14:35;;;;;;;;;53.67;42.00;;;;;2.97;62.53;100387.63;5074694;28;45502;-75
2023/01/30 10:17:42;;;;;;;;;42.67;38.67;;;;;2.95;62.47;100392.81;5062184;28;45441;-74
2023/01/30 10:20:20;;;;;;;;;49.67;40.00;;;;;2.95;62.57;100403.25;5063093;28;47578;-75
2023/01/30 10:22:54;;;;;;;;;51.67;41.00;;;;;2.91;62.49;100388.44;5053812;28;45553;-74
2023/01/30 10:25:34;;;;;;;;;42.33;34.67;;;;;2.88;62.68;100385.78;5054521;28;45379;-75
2023/01/30 10:28:11;;;;;;;;;52.33;39.00;;;;;2.91;62.66;100374.53;5062728;28;45389;-75
2023/01/30 10:30:37;;;;;;;;;58.67;42.00;;;;;3.02;62.62;100370.28;5074770;28;46528;-75
2023/01/30 10:33:12;;;;;;;;;58.67;38.33;;;;;3.09;62.14;100377.34;5064908;27;45398;-74
2023/01/30 10:35:41;;;;;;;;;54.67;40.33;;;;;3.09;62.18;100365.19;5054337;28;45509;-75
2023/01/30 10:38:29;;;;;;;;;46.67;36.67;;;;;3.19;62.12;100370.47;5065616;28;45469;-74
2023/01/30 10:41:06;;;;;;;;;59.00;43.00;;;;;3.26;61.62;100382.72;5065413;28;46646;-75
2023/01/30 10:43:46;;;;;;;;;62.33;44.67;;;;;3.28;62.03;100383.59;5054234;28;45463;-74
2023/01/30 10:46:22;;;;;;;;;48.67;40.67;;;;;3.32;61.72;100390.59;5065141;28;45566;-75
2023/01/30 10:48:52;;;;;;;;;53.67;44.33;;;;;3.28;61.24;100381.00;5055038;27;45344;-74
2023/01/30 10:51:27;;;;;;;;;50.67;39.00;;;;;3.22;61.12;100360.06;5053427;28;45599;-74
2023/01/30 10:54:12;;;;;;;;;50.00;40.00;;;;;3.19;61.35;100362.66;5061319;28;45622;-75
2023/01/30 10:56:54;;;;;;;;;42.33;38.33;;;;;3.17;61.11;100348.75;5086299;27;45533;-74
2023/01/30 10:59:46;;;;;;;;;52.33;41.00;;;;;3.20;61.07;100369.59;5053906;28;45549;-75
2023/01/30 11:02:18;;;;;;;;;45.67;38.33;;;;;3.20;61.01;100360.06;5060703;28;45384;-75
2023/01/30 11:04:46;;;;;;;;;48.67;37.00;;;;;3.22;61.45;100360.06;5073441;27;45489;-75
2023/01/30 11:07:12;;;;;;;;;56.00;43.00;;;;;3.30;61.13;100371.47;5073771;28;45371;-74
2023/01/30 11:09:44;;;;;;;;;52.33;43.00;;;;;3.34;61.37;100368.91;5073841;28;45301;-75
2023/01/30 11:12:09;;;;;;;;;36.67;33.67;;;;;3.37;60.72;100363.69;5089218;27;46142;-75
2023/01/30 11:14:57;;;;;;;;;46.67;40.33;;;;;3.39;60.29;100348.06;5072373;28;45356;-74
2023/01/30 11:17:38;;;;;;;;;57.67;41.00;;;;;3.36;60.17;100351.53;5074144;28;45418;-75
2023/01/30 11:20:12;;;;;;;;;38.67;35.67;;;;;3.25;60.26;100334.94;5063245;28;45983;-74
2023/01/30 11:22:45;;;;;;;;;47.00;38.67;;;;;3.19;60.58;100360.91;5053147;28;46767;-75
2023/01/30 11:25:16;;;;;;;;;46.33;40.00;;;;;3.14;60.15;100347.88;5051932;28;45567;-74
2023/01/30 11:27:43;;;;;;;;;34.00;28.33;;;;;3.09;60.62;100341.72;5053537;28;45484;-75
2023/01/30 11:30:09;;;;;;;;;51.67;40.67;;;;;3.09;60.51;100317.41;5053513;28;45574;-76